createdAt,value
2023-02-26T00:00:43.697Z,44.63
2023-02-26T00:03:35.377Z,42.00
2023-02-26T00:06:09.737Z,40.43
2023-02-26T00:08:41.709Z,38.67
2023-02-26T00:11:16.281Z,40.52
2023-02-26T00:13:49.509Z,38.63
2023-02-26T00:16:27.575Z,38.43
2023-02-26T00:18:59.625Z,39.60
2023-02-26T00:24:02.359Z,37.40
2023-02-26T00:26:35.461Z,38.33
2023-02-26T00:29:08.361Z,37.97
2023-02-26T00:31:40.481Z,39.23
2023-02-26T00:34:14.685Z,36.63
2023-02-26T00:36:51.624Z,37.67
2023-02-26T00:39:31.266Z,36.20
2023-02-26T00:42:04.233Z,35.08
2023-02-26T00:44:37.621Z,35.95
2023-02-26T00:47:11.353Z,37.27
2023-02-26T00:49:49.124Z,37.23
2023-02-26T00:52:28.046Z,35.67
2023-02-26T00:55:00.620Z,34.47
2023-02-26T00:57:32.788Z,37.00
2023-02-26T01:00:06.192Z,37.28
2023-02-26T01:02:40.053Z,37.50
2023-02-26T01:05:13.573Z,35.80
2023-02-26T01:07:46.778Z,36.00
2023-02-26T01:10:19.458Z,35.00
2023-02-26T01:12:52.387Z,33.58
2023-02-26T01:15:26.142Z,34.30
2023-02-26T01:18:01.709Z,35.17
2023-02-26T01:20:38.158Z,34.70
2023-02-26T01:23:11.170Z,35.48
2023-02-26T01:25:45.051Z,32.40
2023-02-26T01:28:18.437Z,33.90
2023-02-26T01:30:52.311Z,33.48
2023-02-26T01:33:27.054Z,33.87
2023-02-26T01:36:02.833Z,32.63
2023-02-26T01:38:41.233Z,32.65
2023-02-26T01:41:19.889Z,35.23
2023-02-26T01:43:55.067Z,33.48
2023-02-26T01:46:32.353Z,31.53
2023-02-26T01:49:05.262Z,33.57
2023-02-26T01:51:44.713Z,33.47
2023-02-26T01:54:17.383Z,32.03
2023-02-26T01:56:50.363Z,33.23
2023-02-26T01:59:25.190Z,34.20
2023-02-26T02:01:58.096Z,31.37
2023-02-26T02:04:30.135Z,31.67
2023-02-26T02:07:02.308Z,30.92
2023-02-26T02:09:35.083Z,32.75
2023-02-26T02:12:15.233Z,33.50
2023-02-26T02:14:54.153Z,34.57
2023-02-26T02:17:32.005Z,35.57
2023-02-26T02:20:22.650Z,35.97
2023-02-26T02:22:59.943Z,34.27
2023-02-26T02:25:45.210Z,34.65
2023-02-26T02:28:22.714Z,33.60
2023-02-26T02:31:03.732Z,36.33
2023-02-26T02:33:37.626Z,34.17
2023-02-26T02:36:14.555Z,32.98
2023-02-26T02:38:48.808Z,33.50
2023-02-26T02:41:22.065Z,34.37
2023-02-26T02:43:54.738Z,34.83
2023-02-26T02:46:29.716Z,34.20
2023-02-26T02:49:04.039Z,34.50
2023-02-26T02:51:38.713Z,35.53
2023-02-26T02:54:12.011Z,34.93
2023-02-26T02:56:45.921Z,35.73
2023-02-26T02:59:19.504Z,35.83
2023-02-26T03:01:52.736Z,34.55
2023-02-26T03:04:24.970Z,34.50
2023-02-26T03:06:57.340Z,35.17
2023-02-26T03:09:29.710Z,35.10
2023-02-26T03:12:01.881Z,34.38
2023-02-26T03:14:34.874Z,33.03
2023-02-26T03:17:20.135Z,34.63
2023-02-26T03:19:58.660Z,33.00
2023-02-26T03:22:36.833Z,34.75
2023-02-26T03:25:13.574Z,32.93
2023-02-26T03:27:49.202Z,34.65
2023-02-26T03:30:24.724Z,33.90
2023-02-26T03:33:00.663Z,33.03
2023-02-26T03:35:35.199Z,34.40
2023-02-26T03:38:09.640Z,33.77
2023-02-26T03:40:43.222Z,32.33
2023-02-26T03:43:18.929Z,33.50
2023-02-26T03:45:52.306Z,34.33
2023-02-26T03:48:27.982Z,33.95
2023-02-26T03:51:03.548Z,32.83
2023-02-26T03:54:02.048Z,33.30
2023-02-26T03:56:36.505Z,33.10
2023-02-26T03:59:27.627Z,34.15
2023-02-26T04:02:28.180Z,32.90
2023-02-26T04:05:04.569Z,35.33
2023-02-26T04:07:37.040Z,35.40
2023-02-26T04:10:11.200Z,34.38
2023-02-26T04:12:44.296Z,33.20
2023-02-26T04:15:16.404Z,32.80
2023-02-26T04:17:47.954Z,33.60
2023-02-26T04:20:20.609Z,33.30
2023-02-26T04:22:52.520Z,33.87
2023-02-26T04:25:27.731Z,32.80
2023-02-26T04:28:00.127Z,34.50
2023-02-26T04:33:02.177Z,32.35
2023-02-26T04:35:35.364Z,35.60
2023-02-26T04:40:37.648Z,32.33
2023-02-26T04:45:43.211Z,32.33
2023-02-26T04:48:15.787Z,33.67
2023-02-26T04:50:47.946Z,35.33
2023-02-26T04:53:20.543Z,34.63
2023-02-26T04:55:53.713Z,34.20
2023-02-26T04:58:26.081Z,35.30
2023-02-26T05:00:58.887Z,34.43
2023-02-26T05:03:31.655Z,34.95
2023-02-26T05:06:03.832Z,36.47
2023-02-26T05:08:38.230Z,34.85
2023-02-26T05:11:10.194Z,34.97
2023-02-26T05:16:12.798Z,33.57
2023-02-26T05:18:44.851Z,35.30
2023-02-26T05:21:16.609Z,37.45
2023-02-26T05:23:48.782Z,38.02
2023-02-26T05:26:21.959Z,36.00
2023-02-26T05:28:54.538Z,36.00
2023-02-26T05:33:56.614Z,35.40
2023-02-26T05:36:28.178Z,35.92
2023-02-26T05:38:59.718Z,35.45
2023-02-26T05:41:31.542Z,36.65
2023-02-26T05:44:04.252Z,35.95
2023-02-26T05:46:36.251Z,36.53
2023-02-26T05:49:08.394Z,35.48
2023-02-26T05:51:43.006Z,38.98
2023-02-26T05:54:14.759Z,35.40
2023-02-26T05:56:47.126Z,36.48
2023-02-26T05:59:19.092Z,34.98
2023-02-26T06:01:50.800Z,32.03
2023-02-26T06:04:22.603Z,34.33
2023-02-26T06:06:55.389Z,36.60
2023-02-26T06:09:27.547Z,32.03
2023-02-26T06:11:59.924Z,34.40
2023-02-26T06:14:32.287Z,36.77
2023-02-26T06:17:03.729Z,35.20
2023-02-26T06:19:36.005Z,36.43
2023-02-26T06:24:37.672Z,40.95
2023-02-26T06:27:10.496Z,43.28
2023-02-26T06:29:42.221Z,37.45
2023-02-26T06:32:13.548Z,38.45
2023-02-26T06:34:45.318Z,35.90
2023-02-26T06:37:17.178Z,36.80
2023-02-26T06:39:49.242Z,37.57
2023-02-26T06:42:21.818Z,34.95
2023-02-26T06:44:54.397Z,33.77
2023-02-26T06:47:25.942Z,35.20
2023-02-26T06:49:57.909Z,33.80
2023-02-26T06:52:30.487Z,33.73
2023-02-26T06:55:02.648Z,34.03
2023-02-26T07:00:05.373Z,32.93
2023-02-26T07:02:38.155Z,33.87
2023-02-26T07:05:10.986Z,34.60
2023-02-26T07:07:44.089Z,34.23
2023-02-26T07:10:16.256Z,33.47
2023-02-26T07:15:18.566Z,32.80
2023-02-26T07:17:50.295Z,33.80
2023-02-26T07:20:22.890Z,35.05
2023-02-26T07:22:54.630Z,33.63
2023-02-26T07:25:27.208Z,36.05
2023-02-26T07:28:00.392Z,36.60
2023-02-26T07:30:32.884Z,35.53
2023-02-26T07:33:04.517Z,36.17
2023-02-26T07:35:36.686Z,34.95
2023-02-26T07:38:08.850Z,33.92
2023-02-26T07:40:40.605Z,36.55
2023-02-26T07:43:12.974Z,34.78
2023-02-26T07:45:45.213Z,35.35
2023-02-26T07:48:17.730Z,34.93
2023-02-26T07:50:52.785Z,36.50
2023-02-26T07:53:24.916Z,36.33
2023-02-26T07:55:57.082Z,36.73
2023-02-26T07:58:29.452Z,34.10
2023-02-26T08:01:01.260Z,34.33
2023-02-26T08:03:33.987Z,33.18
2023-02-26T08:06:06.156Z,34.10
2023-02-26T08:11:08.233Z,30.82
2023-02-26T08:16:10.629Z,30.37
2023-02-26T08:18:42.680Z,32.75
2023-02-26T08:21:14.441Z,34.80
2023-02-26T08:23:46.809Z,32.35
2023-02-26T08:26:19.191Z,32.03
2023-02-26T08:28:52.370Z,32.60
2023-02-26T08:31:23.834Z,34.48
2023-02-26T08:33:56.291Z,33.18
2023-02-26T08:36:28.657Z,34.40
2023-02-26T08:39:00.825Z,32.35
2023-02-26T08:41:33.013Z,31.45
2023-02-26T08:44:05.368Z,31.62
2023-02-26T08:46:37.238Z,30.25
2023-02-26T08:49:09.285Z,31.68
2023-02-26T08:51:41.044Z,32.70
2023-02-26T08:54:14.449Z,30.53
2023-02-26T08:56:46.612Z,30.52
2023-02-26T08:59:18.364Z,30.23
2023-02-26T09:01:50.555Z,31.80
2023-02-26T09:04:23.106Z,31.10
2023-02-26T09:06:55.680Z,31.87
2023-02-26T09:09:27.640Z,31.80
2023-02-26T09:14:31.557Z,29.55
2023-02-26T09:17:03.117Z,30.12
2023-02-26T09:19:34.877Z,33.05
2023-02-26T09:22:07.051Z,32.55
2023-02-26T09:27:08.501Z,30.57
2023-02-26T09:29:40.058Z,30.75
2023-02-26T09:32:11.135Z,30.05
2023-02-26T09:34:43.376Z,30.17
2023-02-26T09:39:45.646Z,25.83
2023-02-26T09:42:27.897Z,26.48
2023-02-26T09:45:00.440Z,25.82
2023-02-26T09:47:39.764Z,26.85
2023-02-26T09:50:16.224Z,26.35
2023-02-26T09:52:52.691Z,25.37
2023-02-26T09:55:27.536Z,23.65
2023-02-26T09:58:01.015Z,22.75
2023-02-26T10:00:35.904Z,24.35
2023-02-26T10:03:17.305Z,21.12
2023-02-26T10:05:53.726Z,19.57
2023-02-26T10:08:28.456Z,12.07
2023-02-26T10:11:03.784Z,8.95
2023-02-26T10:13:56.047Z,7.15
2023-02-26T10:16:31.017Z,7.33
2023-02-26T10:19:04.748Z,7.03
2023-02-26T10:21:38.756Z,6.35
2023-02-26T10:24:15.623Z,7.15
2023-02-26T10:26:51.663Z,7.55
2023-02-26T10:29:25.571Z,7.15
2023-02-26T10:32:05.142Z,9.00
2023-02-26T10:34:40.452Z,8.60
2023-02-26T10:37:15.700Z,8.13
2023-02-26T10:39:50.938Z,7.22
2023-02-26T10:42:25.466Z,7.28
2023-02-26T10:45:03.957Z,6.45
2023-02-26T10:47:37.941Z,6.42
2023-02-26T10:50:13.405Z,7.70
2023-02-26T10:52:46.323Z,6.50
2023-02-26T10:55:35.473Z,5.28
2023-02-26T10:58:11.351Z,6.17
2023-02-26T11:00:44.573Z,5.92
2023-02-26T11:03:18.324Z,5.47
2023-02-26T11:05:50.901Z,5.35
2023-02-26T11:08:27.572Z,5.33
2023-02-26T11:11:00.391Z,5.72
2023-02-26T11:13:34.372Z,4.95
2023-02-26T11:16:07.611Z,5.10
2023-02-26T11:18:41.218Z,5.12
2023-02-26T11:21:18.652Z,5.58
2023-02-26T11:23:51.633Z,4.78
2023-02-26T11:26:28.030Z,5.58
2023-02-26T11:29:00.885Z,5.55
2023-02-26T11:31:34.005Z,5.67
2023-02-26T11:34:07.469Z,5.33
2023-02-26T11:36:40.695Z,5.12
2023-02-26T11:39:17.742Z,5.75
2023-02-26T11:41:50.927Z,5.83
2023-02-26T11:44:29.032Z,4.97
2023-02-26T11:47:03.519Z,5.45
2023-02-26T11:49:35.619Z,6.20
2023-02-26T11:52:21.035Z,5.90
2023-02-26T11:54:56.883Z,5.50
2023-02-26T11:57:30.778Z,6.42
2023-02-26T12:00:06.674Z,5.08
2023-02-26T12:02:44.934Z,5.10
2023-02-26T12:07:48.944Z,5.58
2023-02-26T12:10:24.135Z,5.97
2023-02-26T12:13:04.934Z,5.33
2023-02-26T12:15:41.008Z,5.25
2023-02-26T12:18:18.299Z,5.58
2023-02-26T12:20:56.090Z,5.53
2023-02-26T12:23:36.396Z,5.55
2023-02-26T12:26:14.709Z,5.42
2023-02-26T12:28:49.744Z,6.40
2023-02-26T12:31:36.754Z,5.22
2023-02-26T12:34:16.347Z,5.83
2023-02-26T12:36:54.823Z,5.33
2023-02-26T12:39:40.238Z,5.20
2023-02-26T12:42:19.703Z,4.90
2023-02-26T12:44:57.516Z,4.85
2023-02-26T12:47:34.581Z,4.75
2023-02-26T12:50:13.664Z,6.40
2023-02-26T12:52:59.907Z,5.05
2023-02-26T12:55:37.261Z,6.72
2023-02-26T12:58:23.157Z,6.10
2023-02-26T13:01:05.614Z,5.85
2023-02-26T13:03:54.432Z,5.25
2023-02-26T13:06:37.136Z,5.20
2023-02-26T13:09:15.896Z,7.40
2023-02-26T13:11:56.409Z,6.55
2023-02-26T13:14:32.566Z,6.35
2023-02-26T13:17:08.407Z,5.42
2023-02-26T13:19:43.831Z,10.50
2023-02-26T13:22:20.345Z,9.43
2023-02-26T13:24:55.745Z,5.50
2023-02-26T13:27:30.010Z,7.25
2023-02-26T13:30:08.074Z,6.25
2023-02-26T13:32:40.802Z,6.35
2023-02-26T13:35:19.898Z,6.22
2023-02-26T13:37:53.381Z,4.87
2023-02-26T13:40:36.422Z,5.70
2023-02-26T13:43:12.708Z,6.10
2023-02-26T13:45:50.189Z,5.72
2023-02-26T13:48:28.085Z,6.65
2023-02-26T13:51:04.454Z,9.20
2023-02-26T13:53:50.024Z,11.48
2023-02-26T13:56:23.729Z,12.58
2023-02-26T13:58:56.622Z,12.13
2023-02-26T14:01:33.577Z,8.55
2023-02-26T14:04:25.925Z,11.85
2023-02-26T14:06:58.809Z,9.18
2023-02-26T14:09:37.234Z,6.83
2023-02-26T14:12:24.649Z,6.35
2023-02-26T14:15:15.663Z,6.17
2023-02-26T14:17:51.381Z,7.42
2023-02-26T14:20:24.292Z,5.12
2023-02-26T14:23:01.374Z,5.62
2023-02-26T14:25:35.580Z,5.03
2023-02-26T14:28:25.204Z,5.33
2023-02-26T14:31:06.706Z,6.72
2023-02-26T14:33:42.240Z,5.28
2023-02-26T14:36:17.951Z,5.17
2023-02-26T14:38:50.616Z,4.55
2023-02-26T14:41:29.701Z,6.12
2023-02-26T14:44:03.004Z,4.93
2023-02-26T14:46:35.749Z,4.95
2023-02-26T14:49:09.809Z,5.22
2023-02-26T14:51:56.640Z,4.60
2023-02-26T14:54:44.711Z,6.17
2023-02-26T14:57:22.004Z,5.40
2023-02-26T15:00:10.015Z,5.60
2023-02-26T15:02:49.140Z,6.45
2023-02-26T15:05:37.074Z,6.03
2023-02-26T15:08:23.167Z,5.60
2023-02-26T15:11:01.845Z,5.62
2023-02-26T15:13:45.834Z,6.37
2023-02-26T15:16:24.547Z,6.22
2023-02-26T15:19:09.389Z,6.00
2023-02-26T15:21:46.399Z,6.83
2023-02-26T15:24:18.968Z,6.08
2023-02-26T15:26:51.953Z,5.72
2023-02-26T15:29:27.154Z,5.78
2023-02-26T15:32:01.754Z,5.65
2023-02-26T15:34:34.407Z,7.92
2023-02-26T15:37:06.357Z,6.83
2023-02-26T15:39:38.116Z,5.92
2023-02-26T15:42:11.299Z,6.53
2023-02-26T15:44:56.458Z,5.80
2023-02-26T15:47:29.230Z,6.80
2023-02-26T15:52:32.867Z,5.60
2023-02-26T15:55:06.273Z,6.05
2023-02-26T15:57:38.793Z,5.67
2023-02-26T16:00:17.580Z,5.53
2023-02-26T16:02:50.929Z,5.95
2023-02-26T16:05:23.118Z,6.55
2023-02-26T16:07:55.496Z,5.45
2023-02-26T16:10:33.805Z,6.45
2023-02-26T16:13:05.970Z,5.50
2023-02-26T16:15:39.569Z,5.45
2023-02-26T16:18:13.469Z,5.12
2023-02-26T16:20:46.768Z,5.25
2023-02-26T16:23:19.860Z,6.17
2023-02-26T16:25:52.888Z,5.92
2023-02-26T16:28:26.373Z,6.65
2023-02-26T16:31:02.731Z,5.12
2023-02-26T16:33:35.663Z,5.83
2023-02-26T16:36:14.713Z,6.10
2023-02-26T16:38:47.900Z,5.47
2023-02-26T16:41:23.938Z,5.30
2023-02-26T16:43:57.836Z,5.20
2023-02-26T16:46:33.733Z,5.87
2023-02-26T16:49:07.277Z,4.85
2023-02-26T16:51:41.512Z,10.98
2023-02-26T16:54:19.582Z,13.25
2023-02-26T16:56:53.803Z,13.55
2023-02-26T16:59:26.943Z,13.38
2023-02-26T17:02:00.951Z,14.05
2023-02-26T17:04:34.335Z,13.95
2023-02-26T17:07:16.333Z,14.35
2023-02-26T17:09:49.572Z,14.07
2023-02-26T17:12:22.978Z,14.60
2023-02-26T17:14:57.307Z,15.55
2023-02-26T17:17:29.926Z,13.75
2023-02-26T17:20:02.287Z,13.43
2023-02-26T17:22:34.038Z,12.93
2023-02-26T17:25:06.824Z,13.65
2023-02-26T17:27:38.991Z,12.88
2023-02-26T17:32:41.838Z,12.23
2023-02-26T17:35:15.480Z,12.58
2023-02-26T17:37:48.264Z,13.30
2023-02-26T17:40:21.735Z,12.85
2023-02-26T17:42:53.883Z,13.98
2023-02-26T17:47:55.232Z,15.60
2023-02-26T17:50:30.624Z,13.25
2023-02-26T17:53:02.364Z,14.65
2023-02-26T17:55:39.775Z,15.20
2023-02-26T17:58:16.371Z,14.63
2023-02-26T18:00:50.744Z,17.23
2023-02-26T18:03:22.894Z,16.95
2023-02-26T18:08:25.975Z,15.58
2023-02-26T18:10:58.925Z,16.77
2023-02-26T18:13:31.913Z,17.02
2023-02-26T18:16:04.488Z,16.62
2023-02-26T18:18:36.452Z,16.40
2023-02-26T18:21:09.435Z,16.35
2023-02-26T18:23:41.403Z,15.10
2023-02-26T18:26:14.448Z,15.10
2023-02-26T18:28:46.343Z,15.50
2023-02-26T18:31:20.180Z,17.07
2023-02-26T18:33:51.901Z,19.98
2023-02-26T18:36:30.217Z,21.23
2023-02-26T18:39:02.788Z,19.05
2023-02-26T18:41:36.330Z,19.00
2023-02-26T18:44:08.551Z,16.75
2023-02-26T18:46:42.356Z,15.28
2023-02-26T18:49:20.464Z,13.70
2023-02-26T18:51:52.422Z,12.28
2023-02-26T18:54:24.827Z,11.40
2023-02-26T18:56:56.964Z,9.65
2023-02-26T19:01:59.246Z,9.28
2023-02-26T19:04:32.231Z,8.50
2023-02-26T19:07:04.002Z,9.28
2023-02-26T19:09:36.560Z,8.83
2023-02-26T19:12:11.013Z,7.42
2023-02-26T19:14:45.689Z,7.78
2023-02-26T19:17:17.768Z,6.85
2023-02-26T19:22:19.845Z,6.67
2023-02-26T19:24:51.602Z,7.50
2023-02-26T19:27:24.184Z,6.75
2023-02-26T19:29:56.753Z,7.25
2023-02-26T19:32:28.842Z,8.13
2023-02-26T19:35:01.088Z,7.58
2023-02-26T19:37:33.456Z,8.63
2023-02-26T19:40:09.932Z,8.05
2023-02-26T19:42:42.097Z,8.40
2023-02-26T19:45:15.989Z,9.08
2023-02-26T19:47:47.315Z,8.18
2023-02-26T19:50:19.821Z,8.60
2023-02-26T19:52:51.573Z,8.20
2023-02-26T19:55:24.155Z,10.05
2023-02-26T19:57:56.346Z,10.30
2023-02-26T20:02:58.147Z,11.17
2023-02-26T20:05:30.159Z,11.60
2023-02-26T20:08:02.530Z,12.25
2023-02-26T20:10:35.110Z,10.83
2023-02-26T20:15:37.385Z,9.67
2023-02-26T20:18:09.342Z,10.35
2023-02-26T20:20:41.916Z,10.58
2023-02-26T20:23:14.289Z,9.60
2023-02-26T20:25:50.550Z,10.90
2023-02-26T20:28:22.311Z,11.40
2023-02-26T20:30:54.088Z,11.20
2023-02-26T20:33:25.287Z,11.12
2023-02-26T20:35:56.963Z,12.75
2023-02-26T20:38:29.943Z,12.30
2023-02-26T20:41:01.722Z,13.10
2023-02-26T20:43:33.662Z,12.88
2023-02-26T20:46:05.906Z,12.03
2023-02-26T20:48:41.882Z,12.37
2023-02-26T20:51:15.307Z,11.60
2023-02-26T20:53:47.047Z,11.75
2023-02-26T20:56:19.316Z,12.37
2023-02-26T21:01:22.511Z,12.10
2023-02-26T21:03:54.913Z,12.07
2023-02-26T21:06:27.252Z,12.10
2023-02-26T21:09:00.644Z,12.20
2023-02-26T21:11:36.547Z,11.53
2023-02-26T21:14:09.688Z,12.07
2023-02-26T21:16:41.894Z,12.37
2023-02-26T21:19:13.812Z,12.58
2023-02-26T21:21:46.188Z,12.50
2023-02-26T21:24:17.732Z,11.50
2023-02-26T21:26:49.286Z,10.27
2023-02-26T21:29:21.655Z,10.88
2023-02-26T21:31:53.961Z,10.65
2023-02-26T21:34:34.090Z,8.53
2023-02-26T21:37:07.990Z,8.97
2023-02-26T21:39:40.153Z,8.63
2023-02-26T21:42:13.132Z,7.40
2023-02-26T21:44:45.098Z,7.17
2023-02-26T21:47:17.258Z,7.70
2023-02-26T21:49:48.811Z,7.20
2023-02-26T21:52:21.387Z,6.78
2023-02-26T21:54:53.561Z,6.80
2023-02-26T21:57:26.534Z,6.60
2023-02-26T21:59:58.302Z,6.33
2023-02-26T22:02:31.354Z,6.03
2023-02-26T22:05:04.061Z,5.83
2023-02-26T22:07:37.243Z,6.20
2023-02-26T22:10:12.308Z,4.70
2023-02-26T22:12:44.416Z,5.47
2023-02-26T22:15:17.223Z,5.10
2023-02-26T22:17:48.978Z,4.83
2023-02-26T22:20:20.769Z,4.70
2023-02-26T22:22:52.900Z,5.08
2023-02-26T22:25:24.660Z,4.35
2023-02-26T22:27:57.440Z,4.42
2023-02-26T22:30:29.425Z,4.03
2023-02-26T22:33:00.924Z,4.03
2023-02-26T22:35:33.326Z,4.80
2023-02-26T22:38:05.490Z,4.40
2023-02-26T22:40:38.277Z,4.45
2023-02-26T22:43:10.492Z,4.35
2023-02-26T22:45:42.654Z,4.05
2023-02-26T22:50:45.710Z,4.05
2023-02-26T22:53:17.258Z,3.90
2023-02-26T22:55:49.628Z,4.55
2023-02-26T23:00:52.964Z,4.50
2023-02-26T23:03:24.493Z,3.85
2023-02-26T23:05:56.863Z,4.65
2023-02-26T23:08:29.844Z,4.25
2023-02-26T23:11:02.431Z,4.53
2023-02-26T23:13:35.830Z,4.70
2023-02-26T23:16:09.468Z,4.00
2023-02-26T23:18:41.172Z,4.30
2023-02-26T23:21:13.338Z,4.00
2023-02-26T23:23:45.239Z,4.20
2023-02-26T23:26:17.467Z,4.20
2023-02-26T23:28:49.834Z,4.60
2023-02-26T23:33:51.651Z,4.50
2023-02-26T23:36:23.675Z,4.40
2023-02-26T23:38:55.844Z,5.05
2023-02-26T23:43:59.124Z,5.00
2023-02-26T23:49:01.226Z,5.00
2023-02-26T23:51:32.783Z,4.63
2023-02-26T23:54:04.318Z,4.83
2023-02-26T23:56:35.869Z,4.55
2023-02-26T23:59:07.420Z,4.63
